Time;durP1;ratioP1;P1;durP2;ratioP2;P2;SDS_P1;SDS_P2;PMS_P1;PMS_P2;Temp;Humidity;BMP_temperature;BMP_pressure;BME280_temperature;BME280_humidity;BME280_pressure;Samples;Min_cycle;Max_cycle;Signal;HPM_P1;HPM_P2
2023/05/12 00:01:04;;;;;;;1.25;0.80;;;;;;;13.79;86.71;100400.00;5012473;28;20052;-78
2023/05/12 00:03:56;;;;;;;2.28;0.85;;;;;;;13.76;86.42;100401.50;5011665;28;20045;-78
2023/05/12 00:06:48;;;;;;;1.20;0.90;;;;;;;13.79;86.88;100397.28;5014636;28;20512;-77
2023/05/12 00:09:45;;;;;;;2.30;1.03;;;;;;;13.97;85.98;100406.78;5010876;28;20528;-78
2023/05/12 00:12:40;;;;;;;1.67;0.70;;;;;;;13.87;85.66;100404.53;5016309;28;20060;-78
2023/05/12 00:15:32;;;;;;;1.58;0.80;;;;;;;13.79;85.99;100405.47;5019710;28;20041;-78
2023/05/12 00:18:27;;;;;;;4.10;1.33;;;;;;;13.78;86.38;100410.13;5017544;28;20045;-78
2023/05/12 00:21:16;;;;;;;2.63;1.15;;;;;;;13.78;86.87;100401.94;5001652;28;20064;-78
2023/05/12 00:24:08;;;;;;;5.47;1.27;;;;;;;13.79;86.61;100400.00;4996845;28;20057;-78
2023/05/12 00:27:03;;;;;;;2.63;1.30;;;;;;;13.75;87.02;100394.44;5003171;28;20036;-78
2023/05/12 00:29:57;;;;;;;2.15;1.60;;;;;;;13.79;86.90;100394.53;5015521;28;20508;-78
2023/05/12 00:32:49;;;;;;;2.20;1.70;;;;;;;13.79;87.84;100387.13;5004760;28;20525;-78
2023/05/12 00:35:44;;;;;;;6.93;1.58;;;;;;;13.80;87.82;100393.41;5001545;28;20065;-78
2023/05/12 00:38:38;;;;;;;4.80;1.42;;;;;;;13.71;87.72;100391.56;5012744;28;20536;-78
2023/05/12 00:41:33;;;;;;;2.55;1.85;;;;;;;13.70;88.55;100392.75;5016447;28;20092;-78
2023/05/12 00:44:28;;;;;;;1.45;1.35;;;;;;;13.86;87.96;100387.38;5015456;28;20045;-78
2023/05/12 00:47:22;;;;;;;1.75;1.55;;;;;;;13.86;87.47;100386.56;5014420;28;20049;-78
2023/05/12 00:50:16;;;;;;;3.57;1.77;;;;;;;13.78;87.74;100384.75;5029171;28;20061;-78
2023/05/12 00:53:11;;;;;;;1.90;1.73;;;;;;;13.69;88.21;100388.41;4996546;28;20280;-78
2023/05/12 00:56:06;;;;;;;4.00;2.20;;;;;;;13.94;88.03;100385.63;4996533;28;20418;-78
2023/05/12 00:58:58;;;;;;;4.40;2.47;;;;;;;14.05;86.27;100382.06;5012155;28;20409;-77
2023/05/12 01:01:53;;;;;;;4.03;2.60;;;;;;;13.99;84.86;100379.91;5013157;28;20049;-78
2023/05/12 01:04:48;;;;;;;3.75;2.53;;;;;;;13.97;86.71;100382.19;4994985;28;20041;-78
2023/05/12 01:07:44;;;;;;;3.15;2.85;;;;;;;14.18;85.11;100388.28;5027064;28;20412;-78
2023/05/12 01:10:44;;;;;;;13.52;5.40;;;;;;;14.11;84.48;100379.91;5009633;28;20426;-77
2023/05/12 01:13:39;;;;;;;6.85;4.60;;;;;;;14.02;84.56;100387.41;5019202;28;20057;-78
2023/05/12 01:16:36;;;;;;;7.97;5.72;;;;;;;13.87;85.54;100390.88;5021297;28;20527;-78
2023/05/12 01:19:57;;;;;;;7.88;5.93;;;;;;;13.94;85.08;100380.97;5007492;28;20045;-78
2023/05/12 01:22:54;;;;;;;7.53;6.20;;;;;;;13.96;84.79;100389.63;5016142;28;20045;-77
2023/05/12 01:25:50;;;;;;;8.82;6.95;;;;;;;14.03;83.80;100387.09;5001582;28;20048;-78
2023/05/12 01:28:45;;;;;;;9.15;7.07;;;;;;;14.11;83.76;100385.38;5012526;28;20068;-78
2023/05/12 01:31:40;;;;;;;8.70;5.18;;;;;;;13.96;84.41;100380.63;4995590;28;20513;-78
2023/05/12 01:34:29;;;;;;;8.30;7.07;;;;;;;13.99;84.98;100380.72;5012475;28;20072;-78
2023/05/12 01:37:23;;;;;;;8.70;7.45;;;;;;;13.96;84.67;100378.69;5006629;28;20045;-78
2023/05/12 01:40:15;;;;;;;11.43;7.80;;;;;;;13.97;84.64;100385.72;5003674;28;20406;-78
2023/05/12 01:43:07;;;;;;;10.65;7.97;;;;;;;14.04;84.82;100390.63;4998029;28;20069;-78
2023/05/12 01:46:02;;;;;;;8.88;7.20;;;;;;;13.93;84.80;100392.22;4995759;28;20509;-78
2023/05/12 01:48:56;;;;;;;10.57;5.60;;;;;;;14.02;84.58;100395.63;5014958;28;20121;-78
2023/05/12 01:51:51;;;;;;;16.98;8.00;;;;;;;14.13;83.77;100394.00;5011544;28;20053;-78
2023/05/12 01:54:50;;;;;;;9.48;7.57;;;;;;;14.10;84.33;100397.44;5022481;28;20414;-78
2023/05/12 01:57:44;;;;;;;7.83;5.80;;;;;;;14.01;84.27;100397.59;5017004;28;20056;-78
2023/05/12 02:00:39;;;;;;;9.17;6.50;;;;;;;14.06;83.48;100386.41;5013734;28;20284;-78
2023/05/12 02:03:35;;;;;;;7.82;6.50;;;;;;;14.16;82.47;100396.06;5077509;23;20049;-81
2023/05/12 02:06:33;;;;;;;10.32;6.93;;;;;;;14.11;83.39;100393.56;5019186;28;20528;-81
2023/05/12 02:09:27;;;;;;;8.48;6.68;;;;;;;14.13;82.96;100397.53;5006272;28;20120;-82
2023/05/12 02:12:24;;;;;;;9.93;7.00;;;;;;;14.13;83.77;100391.25;5016163;28;20405;-82
2023/05/12 02:15:19;;;;;;;7.10;6.07;;;;;;;14.24;83.28;100388.84;5028397;28;20045;-82
2023/05/12 02:18:14;;;;;;;7.28;4.75;;;;;;;14.19;83.27;100394.56;5025481;28;20053;-83
2023/05/12 02:21:06;;;;;;;5.55;4.15;;;;;;;14.25;82.61;100393.16;5006698;28;20048;-82
2023/05/12 02:24:00;;;;;;;6.75;5.95;;;;;;;14.18;82.79;100393.75;5032235;28;20048;-80
2023/05/12 02:26:56;;;;;;;5.40;4.90;;;;;;;13.93;83.17;100392.22;5009804;28;20048;-80
2023/05/12 02:29:48;;;;;;;6.65;5.18;;;;;;;13.58;85.22;100392.75;5015957;28;20052;-81
2023/05/12 02:32:41;;;;;;;6.95;5.65;;;;;;;13.47;85.99;100388.09;5020210;28;20044;-81
2023/05/12 02:35:33;;;;;;;6.78;5.60;;;;;;;13.47;86.39;100390.81;5023681;28;20045;-82
2023/05/12 02:38:28;;;;;;;6.78;5.30;;;;;;;13.69;85.84;100385.69;5023595;28;20048;-81
2023/05/12 02:41:23;;;;;;;8.73;5.75;;;;;;;13.60;85.95;100392.41;5040376;28;20060;-81
2023/05/12 02:44:15;;;;;;;6.88;5.07;;;;;;;13.58;85.64;100389.22;5032169;28;20546;-78
2023/05/12 02:47:09;;;;;;;4.30;3.38;;;;;;;13.50;84.96;100396.41;5011926;28;20041;-78
2023/05/12 02:50:04;;;;;;;3.95;2.78;;;;;;;13.37;85.22;100388.53;5032581;28;20413;-81
2023/05/12 02:52:56;;;;;;;5.10;4.33;;;;;;;13.20;87.05;100389.56;5030182;28;20634;-81
2023/05/12 02:55:50;;;;;;;4.68;4.15;;;;;;;13.19;86.95;100393.44;5029385;28;20299;-82
2023/05/12 02:58:42;;;;;;;2.97;2.63;;;;;;;13.40;86.39;100390.59;5004232;28;20041;-81
2023/05/12 03:01:37;;;;;;;2.85;2.42;;;;;;;13.62;83.65;100393.66;5013385;28;20280;-79
2023/05/12 03:04:32;;;;;;;2.80;2.53;;;;;;;13.65;83.33;100384.78;5027739;28;20048;-78
2023/05/12 03:07:27;;;;;;;4.53;2.80;;;;;;;13.65;84.50;100382.06;5026892;28;20156;-82
2023/05/12 03:10:25;;;;;;;1.70;1.58;;;;;;;13.81;82.29;100382.13;5018259;28;20061;-78
2023/05/12 03:13:19;;;;;;;3.25;2.28;;;;;;;13.85;81.96;100384.97;4999799;28;20044;-78
2023/05/12 03:16:09;;;;;;;4.35;2.33;;;;;;;13.79;81.77;100386.34;5032921;28;20060;-79
2023/05/12 03:19:03;;;;;;;3.33;2.70;;;;;;;13.66;82.70;100382.84;5011733;28;20052;-79
2023/05/12 03:21:58;;;;;;;3.20;1.70;;;;;;;13.49;82.52;100389.34;5018016;28;20041;-79
2023/05/12 03:24:50;;;;;;;4.18;2.33;;;;;;;13.38;83.41;100387.41;5031409;28;20049;-79
2023/05/12 03:27:43;;;;;;;2.58;2.22;;;;;;;13.42;83.84;100389.09;5035627;28;20041;-78
2023/05/12 03:30:33;;;;;;;4.47;2.28;;;;;;;13.60;84.34;100389.69;5023276;28;20049;-80
2023/05/12 03:33:25;;;;;;;2.42;1.75;;;;;;;13.45;83.94;100380.25;5014261;28;20040;-79
2023/05/12 03:36:19;;;;;;;4.78;2.33;;;;;;;13.37;84.57;100372.16;5019880;28;20041;-80
2023/05/12 03:39:14;;;;;;;5.20;1.88;;;;;;;13.26;85.39;100371.81;5031837;28;20048;-81
2023/05/12 03:42:06;;;;;;;5.75;2.47;;;;;;;13.22;85.32;100370.91;5025471;28;20420;-79
2023/05/12 03:45:01;;;;;;;2.20;1.70;;;;;;;13.26;85.14;100371.81;5023537;28;20044;-79
2023/05/12 03:47:55;;;;;;;4.85;1.65;;;;;;;13.48;84.32;100376.03;5013649;28;20300;-80
2023/05/12 03:50:50;;;;;;;3.05;1.52;;;;;;;13.43;83.47;100363.41;5006094;28;20516;-79
2023/05/12 03:53:45;;;;;;;1.58;1.25;;;;;;;13.59;82.71;100371.69;5015544;28;20057;-79
2023/05/12 03:56:38;;;;;;;2.45;1.63;;;;;;;13.70;81.97;100367.34;5026746;28;20044;-79
2023/05/12 03:59:33;;;;;;;1.13;0.90;;;;;;;13.83;81.86;100366.19;5024558;28;20072;-79
2023/05/12 04:02:28;;;;;;;1.45;1.25;;;;;;;13.90;81.47;100368.34;5021863;28;20045;-79
2023/05/12 04:05:22;;;;;;;2.67;1.70;;;;;;;13.96;80.98;100366.94;5025375;28;20044;-80
2023/05/12 04:08:17;;;;;;;2.05;1.35;;;;;;;14.04;80.39;100368.75;5035312;28;20056;-79
2023/05/12 04:11:12;;;;;;;1.80;1.35;;;;;;;13.30;83.29;100374.69;5016309;28;20048;-79
2023/05/12 04:14:06;;;;;;;1.98;1.20;;;;;;;13.05;84.70;100379.31;5018214;28;20053;-80
2023/05/12 04:16:59;;;;;;;1.48;0.90;;;;;;;12.93;85.20;100387.47;5021963;28;20512;-80
2023/05/12 04:19:51;;;;;;;1.45;1.17;;;;;;;12.84;86.65;100385.63;5026668;28;20049;-78
2023/05/12 04:22:46;;;;;;;2.58;1.33;;;;;;;13.00;86.24;100387.72;5018120;28;20052;-79
2023/05/12 04:25:42;;;;;;;2.15;1.90;;;;;;;13.05;85.66;100395.69;5034880;28;20413;-80
2023/05/12 04:28:36;;;;;;;1.60;1.30;;;;;;;12.84;86.40;100393.03;5022452;28;20056;-81
2023/05/12 04:31:31;;;;;;;2.00;0.80;;;;;;;12.77;86.94;100392.78;5027921;28;20040;-79
2023/05/12 04:34:26;;;;;;;1.85;1.00;;;;;;;12.77;86.48;100398.22;5020891;28;20428;-80
2023/05/12 04:37:21;;;;;;;1.05;0.82;;;;;;;12.71;86.25;100402.28;5045619;28;20413;-81
2023/05/12 04:40:16;;;;;;;2.55;0.90;;;;;;;12.80;85.85;100405.72;5020725;28;20077;-80
2023/05/12 04:43:08;;;;;;;1.92;0.88;;;;;;;12.93;85.61;100403.84;5048199;28;20040;-82
2023/05/12 04:46:02;;;;;;;0.50;0.50;;;;;;;12.78;85.52;100405.28;5031290;28;20041;-81
2023/05/12 04:48:55;;;;;;;3.38;0.50;;;;;;;12.85;85.52;100400.84;5019393;28;20040;-82
2023/05/12 04:51:47;;;;;;;1.08;0.57;;;;;;;13.07;85.21;100409.75;5016756;28;20048;-81
2023/05/12 04:54:42;;;;;;;3.10;0.55;;;;;;;13.12;83.97;100401.38;5014298;28;20049;-82
2023/05/12 04:57:37;;;;;;;1.30;0.33;;;;;;;13.15;83.38;100408.91;5007942;28;20053;-82
2023/05/12 05:00:31;;;;;;;0.82;0.60;;;;;;;13.27;83.36;100406.97;5026993;28;20049;-82
2023/05/12 05:03:23;;;;;;;0.60;0.40;;;;;;;13.02;83.27;100407.25;5002102;28;20516;-82
2023/05/12 05:06:17;;;;;;;1.55;0.40;;;;;;;12.98;83.67;100414.53;5022693;28;21645;-82
2023/05/12 05:09:11;;;;;;;0.55;0.40;;;;;;;12.84;84.96;100412.94;5026683;28;20048;-82
2023/05/12 05:12:05;;;;;;;0.30;0.30;;;;;;;12.82;84.20;100423.38;5033654;28;20041;-82
2023/05/12 05:15:00;;;;;;;1.10;0.68;;;;;;;12.75;84.20;100425.84;5034539;28;20072;-81
2023/05/12 05:17:55;;;;;;;0.20;0.20;;;;;;;12.88;84.51;100428.63;5026714;28;20044;-82
2023/05/12 05:20:49;;;;;;;0.30;0.30;;;;;;;12.93;83.57;100423.75;5009354;28;20048;-80
2023/05/12 05:23:45;;;;;;;0.60;0.38;;;;;;;12.97;84.05;100432.03;5010274;28;20535;-80
2023/05/12 05:26:37;;;;;;;1.77;0.40;;;;;;;12.90;84.37;100432.59;5017129;28;20048;-79
2023/05/12 05:29:31;;;;;;;0.85;0.40;;;;;;;12.85;85.20;100430.88;5013305;28;20044;-78
2023/05/12 05:32:24;;;;;;;1.67;1.20;;;;;;;12.94;84.58;100432.72;5010078;28;20049;-81
2023/05/12 05:35:18;;;;;;;0.90;0.60;;;;;;;13.10;84.26;100431.75;5030754;28;20048;-80
2023/05/12 05:38:11;;;;;;;0.55;0.40;;;;;;;13.22;83.62;100436.44;5031183;28;20404;-81
2023/05/12 05:41:06;;;;;;;0.73;0.40;;;;;;;13.17;83.60;100426.53;5023020;28;20523;-79
2023/05/12 05:44:00;;;;;;;0.35;0.30;;;;;;;13.26;83.61;100442.81;4999529;28;20045;-80
2023/05/12 05:46:55;;;;;;;0.65;0.40;;;;;;;13.07;83.61;100442.53;5029255;28;20416;-81
2023/05/12 05:49:49;;;;;;;0.40;0.40;;;;;;;12.99;83.96;100443.44;5038818;28;20109;-83
2023/05/12 05:52:44;;;;;;;1.48;0.60;;;;;;;13.03;84.60;100436.94;5008249;28;20073;-83
2023/05/12 05:55:39;;;;;;;1.02;0.82;;;;;;;13.31;84.55;100448.03;5006595;28;20045;-84
2023/05/12 05:58:34;;;;;;;0.60;0.30;;;;;;;13.37;83.59;100435.75;5002317;28;20053;-83
2023/05/12 06:01:29;;;;;;;2.78;0.50;;;;;;;13.48;83.65;100442.38;5018776;28;20045;-83
2023/05/12 06:04:21;;;;;;;1.70;0.80;;;;;;;13.64;83.37;100446.03;5025004;28;20412;-83
2023/05/12 06:07:13;;;;;;;3.55;1.00;;;;;;;13.61;82.75;100443.19;5019381;28;20037;-84
2023/05/12 06:10:09;;;;;;;0.83;0.57;;;;;;;13.53;82.78;100444.88;5005159;28;20524;-85
2023/05/12 06:13:04;;;;;;;0.88;0.55;;;;;;;13.70;83.34;100444.66;5021770;28;20044;-84
2023/05/12 06:15:58;;;;;;;1.67;0.57;;;;;;;13.69;82.50;100443.06;5025392;28;20048;-83
2023/05/12 06:18:53;;;;;;;0.85;0.45;;;;;;;13.65;83.21;100436.69;5025700;28;20515;-84
2023/05/12 06:21:47;;;;;;;1.13;0.40;;;;;;;13.63;83.28;100449.88;5032152;28;20068;-83
2023/05/12 06:24:42;;;;;;;0.70;0.70;;;;;;;13.66;83.86;100449.19;5031807;28;20056;-82
2023/05/12 06:27:37;;;;;;;2.70;1.08;;;;;;;13.55;83.79;100450.81;5005584;28;20672;-83
2023/05/12 06:30:31;;;;;;;1.08;0.73;;;;;;;13.55;83.28;100453.53;5019263;28;20049;-82
2023/05/12 06:33:26;;;;;;;0.90;0.60;;;;;;;13.68;84.36;100457.06;5014307;28;20049;-82
2023/05/12 06:36:20;;;;;;;1.35;1.25;;;;;;;13.68;82.65;100457.06;5021805;28;20040;-83
2023/05/12 06:39:13;;;;;;;1.30;0.88;;;;;;;13.70;82.06;100463.00;5024852;28;20052;-82
2023/05/12 06:42:04;;;;;;;1.67;0.95;;;;;;;13.73;81.69;100462.28;5037504;28;20531;-82
2023/05/12 06:45:05;;;;;;;1.20;1.10;;;;;;;13.83;81.10;100469.22;5037953;28;20052;-82
2023/05/12 06:48:00;;;;;;;2.42;1.33;;;;;;;13.87;80.92;100467.41;5033322;28;20060;-82
2023/05/12 06:50:54;;;;;;;1.92;1.70;;;;;;;13.92;80.82;100469.91;5031633;28;20048;-85
2023/05/12 06:53:53;;;;;;;4.93;1.27;;;;;;;13.93;80.99;100475.03;5032376;28;20428;-85
2023/05/12 06:56:43;;;;;;;1.23;1.13;;;;;;;13.93;81.49;100471.50;5014516;28;20528;-84
2023/05/12 06:59:35;;;;;;;4.50;1.60;;;;;;;14.13;81.02;100476.84;5023476;28;20056;-82
2023/05/12 07:02:30;;;;;;;2.75;1.17;;;;;;;14.06;80.91;100475.84;5013367;28;20049;-84
2023/05/12 07:05:25;;;;;;;2.15;0.90;;;;;;;13.91;81.91;100474.59;5023939;28;20040;-85
2023/05/12 07:08:17;;;;;;;2.47;1.10;;;;;;;13.91;81.62;100482.00;5025858;28;20060;-84
2023/05/12 07:11:06;;;;;;;2.35;1.42;;;;;;;14.03;81.21;100476.50;5025035;28;20049;-84
2023/05/12 07:13:58;;;;;;;2.10;1.02;;;;;;;14.06;81.02;100484.03;5021552;28;20507;-80
2023/05/12 07:16:51;;;;;;;3.35;0.98;;;;;;;14.06;80.55;100484.03;5025817;28;20045;-83
2023/05/12 07:19:45;;;;;;;4.57;1.20;;;;;;;14.21;80.29;100485.25;5034644;28;20049;-82
2023/05/12 07:22:40;;;;;;;4.03;1.63;;;;;;;14.25;79.91;100492.44;5007110;28;20068;-84
2023/05/12 07:25:30;;;;;;;1.60;1.20;;;;;;;14.23;79.86;100482.97;5033822;28;20044;-83
2023/05/12 07:28:22;;;;;;;2.03;1.45;;;;;;;14.29;79.47;100492.53;5018087;28;20037;-83
2023/05/12 07:31:17;;;;;;;1.52;1.13;;;;;;;14.31;78.61;100482.84;5023801;28;20041;-83
2023/05/12 07:34:11;;;;;;;3.33;1.23;;;;;;;14.61;78.32;100482.56;5028149;28;20045;-84
2023/05/12 07:37:06;;;;;;;5.17;0.73;;;;;;;14.50;78.43;100488.53;5035881;28;20299;-84
2023/05/12 07:40:00;;;;;;;2.70;0.93;;;;;;;14.46;78.39;100490.34;5034290;28;20363;-84
2023/05/12 07:42:55;;;;;;;2.50;1.10;;;;;;;14.58;77.88;100486.00;5031354;28;20052;-83
2023/05/12 07:45:50;;;;;;;1.60;1.10;;;;;;;14.48;77.21;100492.72;5019389;28;20048;-83
2023/05/12 07:48:44;;;;;;;2.63;0.70;;;;;;;14.42;76.83;100494.94;5016187;28;20048;-85
2023/05/12 07:51:39;;;;;;;2.77;1.00;;;;;;;14.50;77.04;100490.47;5031142;28;20819;-83
2023/05/12 07:54:33;;;;;;;1.42;0.90;;;;;;;14.44;77.82;100489.09;5018062;28;20064;-84
2023/05/12 07:57:25;;;;;;;3.15;1.17;;;;;;;14.37;78.45;100491.66;5015534;28;20060;-82
2023/05/12 08:00:20;;;;;;;2.55;0.90;;;;;;;14.54;78.67;100494.09;5017877;28;20058;-81
2023/05/12 08:03:15;;;;;;;7.80;1.45;;;;;;;14.53;76.85;100492.47;5124667;23;20445;-78
2023/05/12 08:06:07;;;;;;;1.70;1.13;;;;;;;14.60;76.74;100495.44;5008975;28;20188;-79
2023/05/12 08:09:01;;;;;;;1.40;0.85;;;;;;;14.58;76.83;100491.47;5003267;28;20049;-80
2023/05/12 08:11:53;;;;;;;4.05;1.17;;;;;;;14.60;77.33;100489.16;5021753;28;20060;-81
2023/05/12 08:14:48;;;;;;;1.10;0.80;;;;;;;14.67;77.41;100489.38;4985010;28;20046;-81
2023/05/12 08:17:42;;;;;;;2.72;1.15;;;;;;;14.74;77.64;100492.31;4987960;28;20055;-80
2023/05/12 08:20:37;;;;;;;2.72;1.25;;;;;;;14.82;78.00;100494.09;4985265;28;20049;-79
2023/05/12 08:23:32;;;;;;;3.58;1.70;;;;;;;14.70;77.03;100500.41;4982458;28;20053;-79
2023/05/12 08:26:27;;;;;;;1.90;1.20;;;;;;;14.73;77.12;100498.94;4983889;28;20046;-79
2023/05/12 08:29:14;;;;;;;2.50;2.30;;;;;;;14.79;76.72;100500.25;4971079;28;20045;-79
2023/05/12 08:32:09;;;;;;;2.30;1.55;;;;;;;14.82;76.75;100505.06;4986131;28;20033;-79
2023/05/12 08:35:04;;;;;;;3.92;2.03;;;;;;;14.86;76.63;100505.94;4995495;28;20074;-80
2023/05/12 08:37:58;;;;;;;4.13;1.27;;;;;;;15.01;76.97;100510.66;4991922;28;20049;-78
2023/05/12 08:40:59;;;;;;;2.85;1.13;;;;;;;15.20;75.34;100505.31;4982503;28;20054;-79
2023/05/12 08:43:52;;;;;;;2.25;2.05;;;;;;;15.19;75.71;100511.13;4982687;28;20054;-80
2023/05/12 08:46:47;;;;;;;3.05;1.55;;;;;;;15.39;77.02;100518.31;4972673;29;20045;-78
2023/05/12 08:49:43;;;;;;;1.15;1.05;;;;;;;15.29;76.71;100513.34;4974279;28;20050;-79
2023/05/12 08:52:38;;;;;;;2.72;1.83;;;;;;;15.29;77.11;100510.63;5003853;28;20054;-79
2023/05/12 08:55:30;;;;;;;1.83;1.40;;;;;;;15.25;77.33;100512.47;4991092;28;20034;-79
2023/05/12 08:58:25;;;;;;;3.17;1.55;;;;;;;15.34;76.54;100513.09;4996076;28;20045;-78
2023/05/12 09:01:20;;;;;;;1.50;1.40;;;;;;;15.37;77.37;100518.69;5000010;28;20049;-78
2023/05/12 09:04:12;;;;;;;1.42;0.80;;;;;;;15.34;76.55;100516.63;4993878;28;20525;-79
2023/05/12 09:07:10;;;;;;;4.18;0.88;;;;;;;15.43;75.62;100524.72;4996963;28;20041;-79
2023/05/12 09:10:05;;;;;;;2.17;0.77;;;;;;;15.43;74.88;100518.44;4986451;28;20054;-79
2023/05/12 09:13:09;;;;;;;;;;;;;;;15.33;73.94;100526.03;4988686;28;20049;-79
2023/05/12 09:16:09;;;;;;;6.03;0.40;;;;;;;15.20;72.41;100527.22;5006483;28;19913;-79
2023/05/12 09:19:02;;;;;;;0.30;0.25;;;;;;;15.32;74.95;100534.59;4977094;28;21028;-80
2023/05/12 09:21:57;;;;;;;0.20;0.20;;;;;;;15.40;72.90;100526.19;4987143;28;20045;-79
2023/05/12 09:24:51;;;;;;;0.30;0.20;;;;;;;15.43;73.58;100523.91;5006232;28;20049;-79
2023/05/12 09:27:47;;;;;;;1.08;0.63;;;;;;;15.57;72.49;100522.34;4991185;28;20524;-78
2023/05/12 09:30:41;;;;;;;10.88;0.63;;;;;;;15.55;73.43;100529.31;5008559;28;20057;-79
2023/05/12 09:33:35;;;;;;;3.90;1.27;;;;;;;15.69;73.61;100529.72;4980925;28;20053;-79
2023/05/12 09:36:30;;;;;;;1.48;0.88;;;;;;;15.76;72.79;100521.63;4985207;28;20518;-79
2023/05/12 09:39:22;;;;;;;1.42;0.70;;;;;;;15.70;71.99;100521.09;4996353;28;20560;-79
2023/05/12 09:42:17;;;;;;;0.38;0.30;;;;;;;15.59;71.34;100528.28;4998222;28;20041;-79
2023/05/12 09:45:15;;;;;;;2.05;1.13;;;;;;;15.70;71.88;100523.84;4995424;28;20053;-78
2023/05/12 09:48:14;;;;;;;0.50;0.40;;;;;;;15.64;71.43;100519.00;4988151;28;20089;-79
2023/05/12 09:51:11;;;;;;;0.52;0.20;;;;;;;15.68;71.23;100517.94;5005227;28;20049;-78
2023/05/12 09:54:03;;;;;;;0.73;0.60;;;;;;;15.80;70.81;100517.03;4997926;28;20049;-79
2023/05/12 09:57:04;;;;;;;0.50;0.50;;;;;;;15.79;71.97;100504.50;5004210;28;20050;-80
2023/05/12 09:59:58;;;;;;;2.00;1.42;;;;;;;15.86;72.03;100510.13;4974122;28;20046;-80
2023/05/12 10:02:52;;;;;;;0.40;0.20;;;;;;;15.87;69.39;100517.22;4971765;28;20045;-80
2023/05/12 10:05:50;;;;;;;1.45;0.30;;;;;;;15.87;69.51;100509.00;4987682;28;20049;-79
2023/05/12 10:09:09;;;;;;;0.73;0.30;;;;;;;15.77;67.70;100501.31;4988894;28;20055;-79
2023/05/12 10:12:05;;;;;;;0.22;0.20;;;;;;;15.83;68.75;100506.16;4978340;28;20414;-78
2023/05/12 10:15:00;;;;;;;1.27;0.25;;;;;;;15.97;68.94;100513.94;4984746;28;20054;-79
2023/05/12 10:17:59;;;;;;;0.25;0.17;;;;;;;16.13;69.08;100509.22;4983112;28;20050;-79
2023/05/12 10:20:57;;;;;;;0.30;0.30;;;;;;;16.02;67.76;100508.16;4991739;28;20549;-79
2023/05/12 10:23:55;;;;;;;0.43;0.30;;;;;;;15.90;69.29;100516.50;4980375;28;20049;-78
2023/05/12 10:26:49;;;;;;;0.52;0.30;;;;;;;15.94;70.18;100516.59;4992811;28;20049;-79
2023/05/12 10:29:45;;;;;;;0.10;0.10;;;;;;;15.94;69.95;100517.41;5004542;28;20050;-78
2023/05/12 10:32:37;;;;;;;0.38;0.17;;;;;;;15.90;69.18;100519.25;4991854;28;20052;-80
2023/05/12 10:35:38;;;;;;;1.08;0.30;;;;;;;15.87;68.69;100517.22;4986081;28;20045;-79
2023/05/12 10:38:38;;;;;;;0.90;0.30;;;;;;;16.00;69.01;100520.66;4984333;28;20046;-80
2023/05/12 10:41:40;;;;;;;0.15;0.10;;;;;;;16.05;67.91;100525.88;4985687;28;20050;-78
2023/05/12 10:44:35;;;;;;;0.25;0.20;;;;;;;16.10;68.55;100531.84;4986560;28;20053;-78
2023/05/12 10:47:35;;;;;;;0.32;0.15;;;;;;;16.17;66.02;100536.72;4980210;28;20042;-79
2023/05/12 10:50:34;;;;;;;2.28;0.25;;;;;;;16.26;65.92;100527.16;4986871;28;20049;-78
2023/05/12 10:53:35;;;;;;;0.40;0.22;;;;;;;16.42;66.01;100531.78;4994586;28;20049;-78
2023/05/12 10:56:42;;;;;;;1.35;0.30;;;;;;;16.56;65.80;100527.41;4999648;28;20053;-79
2023/05/12 10:59:36;;;;;;;0.10;0.10;;;;;;;16.56;66.08;100532.09;4976566;28;20065;-79
2023/05/12 11:02:32;;;;;;;0.10;0.10;;;;;;;16.59;64.69;100536.91;4984426;28;20050;-79
2023/05/12 11:05:36;;;;;;;1.50;0.30;;;;;;;16.61;65.94;100534.59;5000669;28;20042;-79
2023/05/12 11:08:31;;;;;;;0.20;0.20;;;;;;;16.63;65.53;100537.78;4986226;28;20045;-78
2023/05/12 11:11:25;;;;;;;1.33;1.30;;;;;;;17.81;60.50;100525.91;4976519;28;20045;-80
2023/05/12 11:14:21;;;;;;;0.13;0.10;;;;;;;18.78;58.41;100537.16;4973652;28;20403;-82
2023/05/12 11:17:13;;;;;;;12.45;1.02;;;;;;;18.37;58.22;100530.69;4985948;28;20053;-81
2023/05/12 11:20:08;;;;;;;0.30;0.20;;;;;;;18.35;58.43;100541.25;4972162;28;20043;-79
2023/05/12 11:23:03;;;;;;;0.60;0.20;;;;;;;20.66;53.13;100531.34;4982808;28;20058;-82
2023/05/12 11:25:55;;;;;;;0.40;0.20;;;;;;;21.28;50.64;100537.50;4982349;28;20046;-80
2023/05/12 11:28:47;;;;;;;0.25;0.22;;;;;;;20.39;52.86;100532.78;4972135;28;20057;-80
2023/05/12 11:31:42;;;;;;;3.45;0.45;;;;;;;21.75;49.49;100535.56;4970380;28;21886;-80
2023/05/12 11:34:34;;;;;;;;;;;;;;;24.68;41.89;100541.53;4983606;28;20116;-80
2023/05/12 11:37:23;;;;;;;;;;;;;;;26.67;37.17;100535.66;4961673;28;19934;-80
2023/05/12 11:40:22;;;;;;;1.37;0.40;;;;;;;27.27;35.97;100542.78;4976243;28;20463;-81
2023/05/12 11:43:15;;;;;;;0.20;0.20;;;;;;;28.14;33.31;100541.09;4976143;28;20041;-80
2023/05/12 11:46:07;;;;;;;0.70;0.52;;;;;;;28.88;32.44;100541.06;4969692;28;20062;-79
2023/05/12 11:49:10;;;;;;;0.77;0.40;;;;;;;30.49;29.84;100536.22;4974818;28;20038;-80
2023/05/12 11:52:04;;;;;;;4.25;1.08;;;;;;;26.75;35.54;100531.50;4987932;28;20050;-80
2023/05/12 11:55:05;;;;;;;0.55;0.20;;;;;;;29.73;31.40;100532.81;4981277;28;20054;-80
2023/05/12 11:58:03;;;;;;;0.20;0.20;;;;;;;28.80;32.37;100518.06;4989967;28;20053;-80
2023/05/12 12:00:56;;;;;;;0.30;0.10;;;;;;;27.64;34.01;100521.97;4994428;28;20045;-80
2023/05/12 12:03:51;;;;;;;0.20;0.10;;;;;;;28.03;33.94;100524.59;4973496;28;20061;-80
2023/05/12 12:06:47;;;;;;;3.00;2.80;;;;;;;27.07;34.09;100519.69;4976377;28;20054;-80
2023/05/12 12:09:44;;;;;;;2.67;0.20;;;;;;;27.31;34.32;100525.94;4979866;28;20045;-80
2023/05/12 12:12:36;;;;;;;27.75;1.08;;;;;;;28.32;32.58;100524.63;4994497;28;20057;-80
2023/05/12 12:15:31;;;;;;;11.13;1.13;;;;;;;26.25;35.13;100526.91;4974851;28;20042;-80
2023/05/12 12:18:23;;;;;;;;;;;;;;;25.83;37.68;100524.84;4975791;28;20552;-81
2023/05/12 12:21:15;;;;;;;64.28;14.45;;;;;;;25.30;36.81;100529.22;4986170;28;19921;-81
2023/05/12 12:24:10;;;;;;;0.43;0.15;;;;;;;25.19;38.04;100528.59;4987286;28;20497;-79
2023/05/12 12:27:05;;;;;;;2.38;0.30;;;;;;;26.54;36.03;100529.16;4985631;28;20042;-80
2023/05/12 12:29:59;;;;;;;1.45;0.20;;;;;;;26.81;34.92;100527.00;4981764;28;20046;-81
2023/05/12 12:32:51;;;;;;;;;;;;;;;26.78;33.00;100530.63;4989231;28;20049;-79
2023/05/12 12:35:46;;;;;;;1.55;0.45;;;;;;;28.26;31.64;100531.19;4980442;28;19914;-79
2023/05/12 12:38:41;;;;;;;0.28;0.22;;;;;;;27.38;32.25;100523.00;4962198;28;20046;-79
2023/05/12 12:41:36;;;;;;;0.88;0.60;;;;;;;27.21;32.90;100525.75;4966303;28;20057;-79
2023/05/12 12:44:28;;;;;;;;;;;;;;;28.67;30.90;100533.25;4976864;28;20058;-79
2023/05/12 12:47:23;;;;;;;3.15;0.90;;;;;;;26.22;35.21;100532.53;4981994;28;20373;-80
2023/05/12 12:50:17;;;;;;;0.15;0.10;;;;;;;26.56;34.75;100535.88;4981727;28;20046;-80
2023/05/12 12:53:09;;;;;;;0.00;0.00;;;;;;;26.29;35.20;100527.63;4980709;28;20042;-79
2023/05/12 12:56:04;;;;;;;2.42;0.30;;;;;;;24.26;40.51;100533.66;4952273;28;20533;-79
2023/05/12 12:58:58;;;;;;;1.40;0.47;;;;;;;24.51;37.84;100527.84;4993308;28;20410;-79
2023/05/12 13:01:50;;;;;;;0.55;0.55;;;;;;;23.26;41.05;100527.28;4981043;28;20065;-79
2023/05/12 13:04:45;;;;;;;0.20;0.20;;;;;;;23.00;43.01;100523.88;4978483;28;20054;-79
2023/05/12 13:07:40;;;;;;;5.72;5.40;;;;;;;22.54;43.01;100523.25;4962585;28;20042;-80
2023/05/12 13:10:32;;;;;;;0.50;0.40;;;;;;;23.69;41.49;100520.25;4984930;28;20046;-79
2023/05/12 13:13:26;;;;;;;0.65;0.20;;;;;;;21.87;45.13;100521.34;5000352;28;20517;-79
2023/05/12 13:16:21;;;;;;;0.47;0.40;;;;;;;20.24;48.91;100520.03;4974974;28;20045;-79
2023/05/12 13:19:13;;;;;;;0.68;0.30;;;;;;;20.00;49.73;100521.44;4982736;28;20050;-79
2023/05/12 13:22:05;;;;;;;1.63;0.90;;;;;;;19.20;51.61;100523.84;4997185;28;20042;-79
2023/05/12 13:24:57;;;;;;;0.75;0.63;;;;;;;19.18;51.00;100522.66;4975183;28;20046;-78
2023/05/12 13:27:51;;;;;;;0.50;0.30;;;;;;;19.76;51.23;100522.81;4960460;28;20050;-79
2023/05/12 13:30:44;;;;;;;2.00;0.10;;;;;;;20.06;49.73;100515.16;4985781;28;20046;-78
2023/05/12 13:33:36;;;;;;;0.68;0.32;;;;;;;19.81;49.85;100516.94;4983358;28;20065;-79